createdAt,value
2023-03-03T00:00:36.317Z,6.50
2023-03-03T00:02:40.696Z,6.60
2023-03-03T00:04:42.398Z,6.60
2023-03-03T00:06:45.828Z,6.60
2023-03-03T00:08:47.632Z,6.60
2023-03-03T00:10:49.480Z,6.60
2023-03-03T00:12:53.773Z,6.60
2023-03-03T00:14:56.404Z,6.50
2023-03-03T00:17:14.418Z,6.50
2023-03-03T00:19:19.171Z,6.50
2023-03-03T00:21:31.326Z,6.50
2023-03-03T00:23:39.170Z,6.40
2023-03-03T00:25:45.011Z,6.40
2023-03-03T00:27:50.133Z,6.40
2023-03-03T00:29:56.682Z,6.30
2023-03-03T00:32:24.216Z,6.30
2023-03-03T00:34:28.191Z,6.30
2023-03-03T00:36:41.071Z,6.30
2023-03-03T00:38:43.544Z,6.20
2023-03-03T00:40:46.511Z,6.10
2023-03-03T00:42:54.584Z,6.10
2023-03-03T00:44:57.947Z,6.10
2023-03-03T00:47:13.741Z,6.00
2023-03-03T00:49:24.729Z,6.00
2023-03-03T00:51:31.453Z,6.00
2023-03-03T00:53:33.287Z,6.00
2023-03-03T00:55:35.971Z,5.90
2023-03-03T00:57:37.644Z,5.90
2023-03-03T00:59:42.114Z,5.90
2023-03-03T01:01:44.206Z,5.90
2023-03-03T01:03:46.528Z,5.90
2023-03-03T01:05:49.695Z,5.90
2023-03-03T01:07:51.458Z,5.80
2023-03-03T01:09:53.265Z,5.80
2023-03-03T01:11:56.299Z,5.90
2023-03-03T01:13:58.122Z,5.90
2023-03-03T01:16:05.714Z,5.80
2023-03-03T01:18:09.215Z,5.80
2023-03-03T01:20:13.441Z,5.80
2023-03-03T01:22:15.155Z,5.80
2023-03-03T01:24:16.976Z,5.80
2023-03-03T01:26:18.779Z,5.70
2023-03-03T01:28:20.942Z,5.80
2023-03-03T01:30:23.003Z,5.80
2023-03-03T01:32:25.701Z,5.80
2023-03-03T01:34:27.460Z,5.80
2023-03-03T01:36:29.639Z,5.80
2023-03-03T01:38:36.074Z,5.80
2023-03-03T01:40:40.413Z,5.90
2023-03-03T01:42:43.655Z,5.90
2023-03-03T01:44:48.391Z,5.80
2023-03-03T01:47:24.749Z,5.90
2023-03-03T01:49:36.167Z,5.90
2023-03-03T01:51:48.969Z,5.90
2023-03-03T01:54:01.336Z,5.90
2023-03-03T01:56:05.959Z,5.90
2023-03-03T01:58:25.921Z,5.90
2023-03-03T02:00:29.212Z,5.90
2023-03-03T02:02:32.099Z,5.90
2023-03-03T02:04:35.261Z,5.80
2023-03-03T02:06:40.817Z,5.80
2023-03-03T02:09:07.968Z,5.80
2023-03-03T02:11:11.312Z,5.90
2023-03-03T02:13:13.903Z,5.90
2023-03-03T02:15:28.672Z,5.80
2023-03-03T02:17:30.344Z,5.80
2023-03-03T02:19:55.987Z,5.80
2023-03-03T02:21:59.785Z,5.80
2023-03-03T02:24:16.293Z,5.80
2023-03-03T02:26:24.708Z,5.80
2023-03-03T02:28:34.527Z,5.70
2023-03-03T02:30:40.277Z,5.70
2023-03-03T02:32:43.715Z,5.70
2023-03-03T02:34:51.137Z,5.60
2023-03-03T02:36:52.850Z,5.60
2023-03-03T02:39:16.245Z,5.60
2023-03-03T02:41:23.326Z,5.60
2023-03-03T02:43:29.236Z,5.60
2023-03-03T02:45:31.108Z,5.60
2023-03-03T02:47:32.836Z,5.60
2023-03-03T02:49:37.453Z,5.60
2023-03-03T02:51:40.869Z,5.50
2023-03-03T02:53:45.508Z,5.50
2023-03-03T02:55:47.396Z,5.50
2023-03-03T02:57:50.092Z,5.50
2023-03-03T02:59:51.752Z,5.50
2023-03-03T03:01:55.651Z,5.20
2023-03-03T03:03:59.272Z,5.40
2023-03-03T03:06:04.861Z,5.40
2023-03-03T03:08:09.176Z,5.40
2023-03-03T03:10:11.431Z,5.30
2023-03-03T03:12:15.912Z,5.30
2023-03-03T03:14:17.790Z,5.30
2023-03-03T03:16:19.911Z,5.30
2023-03-03T03:18:22.055Z,5.30
2023-03-03T03:20:24.693Z,5.30
2023-03-03T03:22:27.304Z,5.30
2023-03-03T03:24:31.456Z,5.30
2023-03-03T03:26:37.898Z,5.30
2023-03-03T03:28:42.940Z,5.30
2023-03-03T03:30:45.679Z,5.30
2023-03-03T03:32:47.800Z,5.30
2023-03-03T03:34:49.960Z,5.30
2023-03-03T03:36:51.681Z,5.40
2023-03-03T03:38:54.474Z,5.30
2023-03-03T03:40:57.990Z,5.30
2023-03-03T03:42:59.745Z,5.30
2023-03-03T03:45:01.539Z,5.30
2023-03-03T03:47:03.812Z,5.30
2023-03-03T03:49:05.726Z,5.30
2023-03-03T03:51:12.008Z,5.30
2023-03-03T03:53:16.480Z,5.30
2023-03-03T03:55:18.553Z,5.30
2023-03-03T03:57:20.255Z,5.20
2023-03-03T03:59:22.346Z,5.20
2023-03-03T04:01:25.222Z,5.20
2023-03-03T04:03:29.613Z,5.10
2023-03-03T04:05:31.412Z,5.10
2023-03-03T04:07:33.985Z,5.10
2023-03-03T04:09:36.391Z,5.00
2023-03-03T04:11:38.152Z,5.00
2023-03-03T04:13:42.384Z,5.00
2023-03-03T04:15:45.781Z,5.00
2023-03-03T04:17:47.552Z,5.00
2023-03-03T04:19:51.678Z,5.00
2023-03-03T04:21:53.974Z,5.00
2023-03-03T04:23:55.711Z,5.00
2023-03-03T04:25:57.458Z,5.00
2023-03-03T04:28:03.546Z,5.00
2023-03-03T04:30:09.045Z,4.90
2023-03-03T04:32:13.621Z,4.90
2023-03-03T04:34:15.386Z,4.90
2023-03-03T04:36:18.383Z,4.80
2023-03-03T04:38:20.293Z,4.70
2023-03-03T04:40:23.311Z,4.70
2023-03-03T04:42:28.075Z,4.70
2023-03-03T04:44:30.085Z,4.60
2023-03-03T04:46:31.931Z,4.60
2023-03-03T04:48:36.222Z,4.50
2023-03-03T04:50:43.897Z,4.50
2023-03-03T04:52:45.620Z,4.40
2023-03-03T04:54:48.300Z,4.40
2023-03-03T04:56:50.088Z,4.40
2023-03-03T04:58:52.495Z,4.40
2023-03-03T05:00:56.102Z,4.40
2023-03-03T05:02:59.903Z,4.40
2023-03-03T05:05:01.759Z,4.40
2023-03-03T05:07:06.029Z,4.40
2023-03-03T05:09:07.746Z,4.40
2023-03-03T05:11:09.496Z,4.40
2023-03-03T05:13:11.437Z,4.40
2023-03-03T05:15:13.284Z,4.40
2023-03-03T05:17:17.345Z,4.40
2023-03-03T05:19:19.177Z,4.40
2023-03-03T05:21:21.704Z,4.40
2023-03-03T05:23:23.522Z,4.40
2023-03-03T05:25:25.443Z,4.30
2023-03-03T05:27:28.937Z,4.30
2023-03-03T05:29:31.878Z,4.20
2023-03-03T05:31:34.070Z,4.20
2023-03-03T05:33:35.928Z,4.20
2023-03-03T05:35:37.652Z,4.10
2023-03-03T05:37:44.396Z,4.10
2023-03-03T05:39:48.466Z,4.00
2023-03-03T05:41:50.207Z,4.00
2023-03-03T05:43:54.486Z,4.00
2023-03-03T05:45:57.261Z,3.90
2023-03-03T05:48:00.227Z,3.90
2023-03-03T05:50:03.296Z,3.90
2023-03-03T05:52:06.570Z,3.90
2023-03-03T05:54:08.417Z,3.90
2023-03-03T05:56:12.457Z,3.90
2023-03-03T05:58:14.253Z,3.90
2023-03-03T06:00:16.974Z,3.90
2023-03-03T06:02:18.747Z,3.90
2023-03-03T06:04:20.565Z,3.80
2023-03-03T06:06:22.278Z,3.80
2023-03-03T06:08:25.589Z,3.80
2023-03-03T06:10:30.315Z,3.80
2023-03-03T06:12:37.952Z,3.70
2023-03-03T06:14:39.802Z,3.70
2023-03-03T06:16:41.602Z,3.70
2023-03-03T06:18:44.521Z,3.60
2023-03-03T06:20:50.683Z,3.60
2023-03-03T06:22:52.446Z,3.60
2023-03-03T06:24:54.258Z,3.50
2023-03-03T06:26:59.552Z,3.60
2023-03-03T06:29:01.521Z,3.50
2023-03-03T06:31:03.409Z,3.50
2023-03-03T06:33:05.428Z,3.50
2023-03-03T06:35:07.592Z,3.50
2023-03-03T06:37:09.246Z,3.50
2023-03-03T06:39:11.099Z,3.50
2023-03-03T06:41:13.156Z,3.50
2023-03-03T06:43:15.153Z,3.50
2023-03-03T06:45:17.001Z,3.50
2023-03-03T06:47:18.747Z,3.50
2023-03-03T06:49:20.428Z,3.50
2023-03-03T06:51:32.397Z,3.50
2023-03-03T06:53:34.847Z,3.50
2023-03-03T06:55:39.252Z,3.50
2023-03-03T06:57:43.208Z,3.50
2023-03-03T06:59:47.239Z,3.60
2023-03-03T07:01:50.454Z,3.60
2023-03-03T07:03:52.255Z,3.70
2023-03-03T07:05:54.123Z,3.70
2023-03-03T07:07:57.385Z,3.70
2023-03-03T07:10:00.384Z,3.80
2023-03-03T07:12:32.280Z,3.80
2023-03-03T07:14:44.773Z,3.80
2023-03-03T07:16:47.094Z,3.90
2023-03-03T07:18:53.251Z,3.90
2023-03-03T07:20:54.935Z,3.90
2023-03-03T07:22:57.102Z,4.00
2023-03-03T07:25:04.562Z,4.00
2023-03-03T07:27:06.265Z,4.10
2023-03-03T07:29:25.343Z,4.00
2023-03-03T07:31:31.591Z,4.10
2023-03-03T07:33:45.635Z,4.10
2023-03-03T07:35:47.623Z,4.20
2023-03-03T07:37:49.478Z,4.20
2023-03-03T07:39:51.545Z,4.20
2023-03-03T07:41:59.698Z,4.20
2023-03-03T07:44:06.955Z,4.30
2023-03-03T07:46:11.535Z,4.30
2023-03-03T07:48:13.244Z,4.30
2023-03-03T07:50:23.158Z,4.40
2023-03-03T07:52:40.457Z,4.40
2023-03-03T07:54:45.781Z,4.50
2023-03-03T07:56:48.100Z,4.50
2023-03-03T07:58:49.803Z,4.60
2023-03-03T08:01:19.747Z,4.60
2023-03-03T08:03:21.510Z,4.70
2023-03-03T08:05:40.548Z,4.70
2023-03-03T08:07:42.276Z,4.80
2023-03-03T08:09:53.843Z,4.80
2023-03-03T08:11:58.031Z,4.90
2023-03-03T08:13:59.860Z,4.90
2023-03-03T08:16:24.439Z,5.00
2023-03-03T08:18:31.875Z,5.10
2023-03-03T08:20:48.283Z,5.10
2023-03-03T08:22:49.977Z,5.20
2023-03-03T08:24:51.943Z,5.30
2023-03-03T08:26:58.404Z,5.30
2023-03-03T08:29:01.193Z,5.20
2023-03-03T08:31:16.409Z,5.50
2023-03-03T08:33:21.957Z,5.50
2023-03-03T08:35:23.783Z,5.50
2023-03-03T08:37:25.504Z,5.60
2023-03-03T08:39:27.238Z,5.60
2023-03-03T08:41:31.514Z,5.70
2023-03-03T08:43:33.387Z,5.70
2023-03-03T08:45:35.721Z,5.80
2023-03-03T08:47:38.228Z,5.80
2023-03-03T08:49:40.144Z,5.90
2023-03-03T08:51:42.279Z,5.90
2023-03-03T08:53:44.099Z,6.00
2023-03-03T08:55:46.456Z,6.10
2023-03-03T08:57:48.259Z,6.10
2023-03-03T08:59:50.012Z,6.20
2023-03-03T09:01:51.856Z,6.30
2023-03-03T09:03:53.662Z,6.40
2023-03-03T09:05:55.380Z,6.50
2023-03-03T09:07:57.566Z,6.60
2023-03-03T09:10:02.188Z,6.70
2023-03-03T09:12:18.793Z,6.70
2023-03-03T09:14:21.172Z,6.80
2023-03-03T09:16:22.983Z,6.80
2023-03-03T09:18:35.602Z,6.90
2023-03-03T09:20:44.694Z,7.00
2023-03-03T09:22:46.516Z,7.10
2023-03-03T09:24:50.032Z,7.10
2023-03-03T09:26:53.141Z,7.20
2023-03-03T09:29:09.594Z,7.30
2023-03-03T09:31:25.010Z,7.30
2023-03-03T09:33:40.496Z,7.50
2023-03-03T09:35:42.527Z,7.50
2023-03-03T09:37:51.448Z,7.60
2023-03-03T09:39:55.615Z,7.70
2023-03-03T09:42:24.769Z,7.80
2023-03-03T09:44:52.742Z,7.90
2023-03-03T09:47:11.941Z,8.00
2023-03-03T09:49:49.372Z,8.10
2023-03-03T09:52:21.997Z,8.20
2023-03-03T09:54:44.761Z,8.20
2023-03-03T09:57:14.482Z,8.30
2023-03-03T09:59:22.479Z,8.30
2023-03-03T10:01:47.725Z,8.40
2023-03-03T10:04:17.163Z,8.40
2023-03-03T10:06:31.531Z,8.50
2023-03-03T10:08:52.205Z,8.60
2023-03-03T10:10:56.832Z,8.70
2023-03-03T10:13:12.252Z,8.80
2023-03-03T10:15:22.004Z,8.90
2023-03-03T10:17:52.387Z,9.00
2023-03-03T10:20:03.508Z,9.20
2023-03-03T10:22:18.630Z,9.30
2023-03-03T10:24:23.306Z,9.30
2023-03-03T10:26:44.947Z,9.40
2023-03-03T10:28:56.948Z,9.50
2023-03-03T10:31:08.045Z,9.60
2023-03-03T10:33:38.180Z,9.70
2023-03-03T10:36:11.769Z,9.80
2023-03-03T10:38:23.006Z,9.90
2023-03-03T10:41:12.375Z,9.90
2023-03-03T10:43:34.368Z,10.00
2023-03-03T10:46:01.227Z,10.10
2023-03-03T10:48:21.106Z,10.20
2023-03-03T10:50:53.448Z,10.30
2023-03-03T10:53:16.996Z,10.40
2023-03-03T10:55:28.924Z,10.40
2023-03-03T10:57:40.425Z,10.60
2023-03-03T11:00:15.698Z,10.60
2023-03-03T11:02:48.573Z,10.70
2023-03-03T11:05:17.025Z,10.80
2023-03-03T11:07:27.533Z,10.80
2023-03-03T11:09:33.833Z,10.90
2023-03-03T11:11:54.240Z,11.00
2023-03-03T11:14:17.127Z,11.00
2023-03-03T11:16:33.968Z,11.10
2023-03-03T11:18:49.484Z,11.20
2023-03-03T11:21:28.048Z,11.20
2023-03-03T11:23:55.249Z,11.30
2023-03-03T11:26:18.606Z,11.40
2023-03-03T11:28:44.391Z,11.50
2023-03-03T11:31:16.495Z,11.60
2023-03-03T11:33:27.826Z,11.70
2023-03-03T11:35:44.083Z,11.70
2023-03-03T11:37:58.972Z,11.80
2023-03-03T11:40:10.761Z,11.80
2023-03-03T11:42:28.449Z,11.90
2023-03-03T11:44:41.934Z,12.00
2023-03-03T11:46:49.567Z,12.00
2023-03-03T11:49:00.512Z,12.00
2023-03-03T11:51:14.302Z,12.10
2023-03-03T11:53:24.979Z,12.20
2023-03-03T11:55:39.465Z,12.20
2023-03-03T11:58:01.005Z,12.30
2023-03-03T12:00:46.312Z,12.30
2023-03-03T12:03:15.317Z,12.50
2023-03-03T12:05:31.096Z,12.50
2023-03-03T12:08:05.060Z,12.60
2023-03-03T12:10:31.652Z,12.60
2023-03-03T12:13:04.610Z,12.70
2023-03-03T12:15:35.797Z,12.80
2023-03-03T12:17:57.001Z,12.80
2023-03-03T12:20:17.971Z,12.80
2023-03-03T12:23:07.277Z,12.90
2023-03-03T12:25:37.301Z,13.00
2023-03-03T12:27:51.684Z,13.00
2023-03-03T12:30:26.772Z,13.10
2023-03-03T12:32:57.936Z,13.10
2023-03-03T12:35:17.804Z,13.20
2023-03-03T12:37:54.693Z,13.30
2023-03-03T12:40:09.258Z,13.40
2023-03-03T12:42:13.650Z,13.40
2023-03-03T12:44:33.965Z,13.40
2023-03-03T12:46:42.871Z,13.40
2023-03-03T12:48:50.378Z,13.40
2023-03-03T12:51:14.361Z,13.30
2023-03-03T12:53:30.479Z,13.40
2023-03-03T12:56:01.454Z,13.30
2023-03-03T12:58:45.019Z,13.30
2023-03-03T13:01:06.233Z,13.30
2023-03-03T13:03:46.271Z,13.30
2023-03-03T13:06:24.601Z,13.30
2023-03-03T13:08:54.888Z,13.30
2023-03-03T13:11:11.496Z,13.40
2023-03-03T13:13:31.899Z,13.40
2023-03-03T13:16:06.613Z,13.40
2023-03-03T13:18:34.487Z,13.50
2023-03-03T13:20:48.633Z,13.60
2023-03-03T13:22:57.177Z,13.70
2023-03-03T13:25:11.428Z,13.80
2023-03-03T13:27:27.503Z,13.90
2023-03-03T13:29:37.428Z,13.90
2023-03-03T13:31:54.422Z,14.00
2023-03-03T13:33:58.868Z,14.10
2023-03-03T13:36:08.866Z,14.20
2023-03-03T13:38:14.564Z,14.30
2023-03-03T13:40:31.316Z,14.30
2023-03-03T13:42:42.334Z,14.40
2023-03-03T13:44:49.179Z,14.50
2023-03-03T13:47:02.374Z,14.50
2023-03-03T13:49:20.381Z,14.50
2023-03-03T13:51:55.039Z,14.50
2023-03-03T13:54:38.655Z,14.60
2023-03-03T13:57:12.716Z,14.60
2023-03-03T13:59:45.289Z,14.60
2023-03-03T14:02:08.965Z,14.70
2023-03-03T14:04:23.455Z,14.80
2023-03-03T14:06:29.782Z,14.80
2023-03-03T14:08:55.535Z,14.80
2023-03-03T14:11:22.352Z,14.90
2023-03-03T14:13:27.045Z,14.90
2023-03-03T14:15:31.762Z,15.00
2023-03-03T14:18:03.177Z,15.10
2023-03-03T14:20:24.430Z,15.10
2023-03-03T14:22:53.898Z,15.20
2023-03-03T14:25:12.180Z,15.20
2023-03-03T14:27:26.017Z,15.30
2023-03-03T14:29:27.957Z,15.30
2023-03-03T14:31:39.641Z,15.30
2023-03-03T14:34:14.159Z,15.40
2023-03-03T14:36:29.239Z,15.50
2023-03-03T14:38:31.899Z,15.50
2023-03-03T14:40:38.753Z,15.50
2023-03-03T14:42:51.315Z,15.50
2023-03-03T14:44:56.755Z,15.50
2023-03-03T14:47:11.421Z,15.50
2023-03-03T14:49:32.932Z,15.50
2023-03-03T14:51:46.891Z,15.50
2023-03-03T14:53:49.984Z,15.50
2023-03-03T14:55:54.208Z,15.40
2023-03-03T14:57:56.873Z,15.40
2023-03-03T15:00:14.747Z,15.30
2023-03-03T15:02:16.491Z,15.40
2023-03-03T15:04:21.214Z,15.20
2023-03-03T15:06:29.200Z,15.20
2023-03-03T15:08:35.004Z,15.20
2023-03-03T15:10:41.017Z,15.20
2023-03-03T15:12:45.216Z,15.20
2023-03-03T15:14:51.523Z,15.20
2023-03-03T15:16:56.611Z,15.10
2023-03-03T15:19:11.561Z,15.20
2023-03-03T15:21:18.869Z,15.10
2023-03-03T15:23:30.579Z,15.10
2023-03-03T15:25:55.040Z,15.10
2023-03-03T15:28:13.740Z,15.00
2023-03-03T15:30:32.934Z,15.00
2023-03-03T15:32:52.155Z,14.90
2023-03-03T15:35:21.077Z,14.80
2023-03-03T15:37:48.841Z,14.80
2023-03-03T15:40:19.207Z,14.80
2023-03-03T15:42:48.428Z,14.70
2023-03-03T15:45:05.406Z,14.70
2023-03-03T15:47:28.736Z,14.60
2023-03-03T15:49:57.320Z,14.60
2023-03-03T15:52:33.087Z,14.50
2023-03-03T15:54:53.500Z,14.40
2023-03-03T15:57:01.078Z,14.40
2023-03-03T15:59:26.880Z,14.40
2023-03-03T16:02:10.444Z,14.30
2023-03-03T16:04:16.730Z,14.20
2023-03-03T16:06:37.296Z,14.10
2023-03-03T16:09:15.590Z,14.00
2023-03-03T16:11:32.091Z,13.90
2023-03-03T16:14:04.145Z,13.70
2023-03-03T16:16:29.509Z,13.60
2023-03-03T16:18:58.544Z,13.50
2023-03-03T16:21:31.567Z,13.30
2023-03-03T16:23:48.486Z,13.20
2023-03-03T16:26:23.880Z,13.00
2023-03-03T16:28:56.066Z,12.90
2023-03-03T16:30:57.922Z,12.70
2023-03-03T16:33:11.501Z,12.50
2023-03-03T16:35:26.092Z,12.40
2023-03-03T16:37:34.682Z,12.30
2023-03-03T16:39:51.008Z,12.20
2023-03-03T16:42:18.168Z,12.00
2023-03-03T16:44:31.826Z,11.90
2023-03-03T16:46:44.703Z,11.80
2023-03-03T16:48:58.811Z,11.70
2023-03-03T16:51:29.423Z,11.60
2023-03-03T16:54:02.626Z,11.40
2023-03-03T16:56:13.440Z,11.30
2023-03-03T16:58:39.617Z,11.20
2023-03-03T17:00:52.328Z,11.10
2023-03-03T17:03:05.372Z,11.00
2023-03-03T17:05:56.351Z,10.80
2023-03-03T17:08:12.064Z,10.70
2023-03-03T17:10:16.704Z,10.60
2023-03-03T17:12:52.157Z,10.40
2023-03-03T17:15:38.039Z,10.30
2023-03-03T17:18:05.853Z,10.10
2023-03-03T17:20:43.461Z,10.00
2023-03-03T17:23:07.925Z,9.80
2023-03-03T17:25:30.047Z,9.70
2023-03-03T17:27:51.244Z,9.50
2023-03-03T17:30:02.353Z,9.40
2023-03-03T17:32:33.031Z,9.30
2023-03-03T17:35:07.693Z,9.20
2023-03-03T17:37:32.593Z,9.10
2023-03-03T17:40:03.694Z,9.00
2023-03-03T17:42:19.918Z,8.90
2023-03-03T17:44:49.792Z,8.80
2023-03-03T17:47:00.979Z,8.70
2023-03-03T17:49:46.771Z,8.50
2023-03-03T17:52:23.130Z,8.50
2023-03-03T17:54:52.661Z,8.40
2023-03-03T17:57:28.233Z,8.30
2023-03-03T17:59:55.990Z,8.10
2023-03-03T18:02:42.390Z,8.10
2023-03-03T18:05:00.983Z,8.00
2023-03-03T18:07:36.076Z,7.90
2023-03-03T18:09:45.408Z,7.70
2023-03-03T18:12:11.939Z,7.70
2023-03-03T18:14:38.290Z,7.60
2023-03-03T18:17:17.024Z,7.50
2023-03-03T18:19:58.455Z,7.50
2023-03-03T18:22:41.877Z,7.40
2023-03-03T18:24:51.774Z,7.40
2023-03-03T18:26:56.305Z,7.30
2023-03-03T18:29:21.759Z,7.20
2023-03-03T18:31:26.503Z,7.20
2023-03-03T18:33:59.032Z,7.10
2023-03-03T18:36:30.285Z,7.10
2023-03-03T18:38:36.472Z,7.40
2023-03-03T18:40:48.995Z,7.10
2023-03-03T18:42:53.828Z,7.10
2023-03-03T18:44:55.815Z,7.00
2023-03-03T18:46:58.846Z,7.00
2023-03-03T18:49:13.924Z,7.00
2023-03-03T18:51:45.711Z,7.00
2023-03-03T18:54:12.197Z,6.90
2023-03-03T18:56:46.866Z,6.90
2023-03-03T18:58:51.720Z,6.80
2023-03-03T19:01:03.378Z,6.70
2023-03-03T19:03:24.799Z,6.70
2023-03-03T19:05:28.916Z,6.70
2023-03-03T19:07:51.605Z,6.60
2023-03-03T19:10:02.547Z,6.60
2023-03-03T19:12:09.531Z,6.50
2023-03-03T19:14:27.511Z,6.40
2023-03-03T19:16:30.758Z,6.40
2023-03-03T19:18:55.448Z,6.30
2023-03-03T19:21:19.900Z,6.30
2023-03-03T19:23:31.316Z,6.20
2023-03-03T19:25:33.137Z,6.20
2023-03-03T19:28:15.793Z,6.20
2023-03-03T19:30:57.565Z,6.10
2023-03-03T19:33:26.215Z,6.10
2023-03-03T19:36:00.417Z,6.10
2023-03-03T19:38:50.059Z,6.00
2023-03-03T19:41:10.084Z,5.90
2023-03-03T19:43:20.629Z,5.90
2023-03-03T19:45:30.712Z,5.80
2023-03-03T19:47:46.476Z,5.80
2023-03-03T19:49:48.329Z,5.70
2023-03-03T19:52:04.969Z,5.70
2023-03-03T19:54:37.562Z,5.70
2023-03-03T19:56:46.764Z,5.60
2023-03-03T19:59:07.210Z,5.60
2023-03-03T20:01:19.386Z,5.60
2023-03-03T20:03:52.281Z,5.50
2023-03-03T20:06:16.804Z,5.50
2023-03-03T20:08:29.278Z,5.40
2023-03-03T20:10:47.332Z,5.30
2023-03-03T20:13:17.254Z,5.30
2023-03-03T20:15:53.305Z,5.30
2023-03-03T20:18:03.767Z,5.20
2023-03-03T20:20:20.448Z,5.10
2023-03-03T20:22:36.454Z,5.10
2023-03-03T20:24:50.137Z,5.10
2023-03-03T20:27:23.639Z,5.00
2023-03-03T20:29:44.382Z,5.00
2023-03-03T20:32:02.972Z,5.00
2023-03-03T20:34:19.763Z,4.90
2023-03-03T20:36:39.167Z,4.80
2023-03-03T20:38:53.251Z,4.60
2023-03-03T20:41:22.686Z,4.70
2023-03-03T20:43:56.466Z,4.60
2023-03-03T20:46:13.316Z,4.60
2023-03-03T20:48:47.745Z,4.50
2023-03-03T20:51:01.090Z,4.40
2023-03-03T20:53:26.514Z,4.40
2023-03-03T20:56:04.817Z,4.30
2023-03-03T20:58:20.959Z,4.30
2023-03-03T21:00:34.773Z,4.20
2023-03-03T21:02:53.841Z,4.20
2023-03-03T21:05:17.638Z,4.20
2023-03-03T21:07:24.829Z,4.10
2023-03-03T21:09:39.371Z,4.10
2023-03-03T21:11:43.915Z,4.00
2023-03-03T21:13:53.330Z,3.90
2023-03-03T21:16:01.907Z,3.90
2023-03-03T21:18:21.186Z,3.80
2023-03-03T21:20:28.658Z,3.90
2023-03-03T21:22:30.331Z,3.80
2023-03-03T21:24:56.475Z,3.80
2023-03-03T21:27:00.931Z,3.70
2023-03-03T21:29:03.694Z,3.70
2023-03-03T21:31:15.671Z,3.60
2023-03-03T21:33:42.220Z,3.60
2023-03-03T21:36:02.191Z,3.60
2023-03-03T21:38:04.287Z,3.60
2023-03-03T21:40:23.337Z,3.50
2023-03-03T21:42:42.077Z,3.60
2023-03-03T21:44:51.551Z,3.50
2023-03-03T21:46:58.170Z,3.50
2023-03-03T21:49:00.295Z,3.40
2023-03-03T21:51:04.849Z,3.40
2023-03-03T21:53:08.974Z,3.40
2023-03-03T21:55:10.833Z,3.40
2023-03-03T21:57:12.828Z,3.30
2023-03-03T21:59:14.532Z,3.30
2023-03-03T22:01:16.551Z,3.30
2023-03-03T22:03:21.185Z,3.20
2023-03-03T22:05:23.383Z,3.20
2023-03-03T22:07:25.125Z,3.20
2023-03-03T22:09:26.990Z,3.10
2023-03-03T22:11:28.691Z,3.10
2023-03-03T22:13:30.383Z,3.10
2023-03-03T22:15:33.755Z,3.10
2023-03-03T22:17:37.633Z,3.10
2023-03-03T22:19:39.481Z,3.10
2023-03-03T22:21:41.276Z,3.10
2023-03-03T22:23:43.055Z,3.10
2023-03-03T22:25:44.949Z,3.10
2023-03-03T22:27:56.964Z,3.10
2023-03-03T22:30:01.804Z,3.00
2023-03-03T22:32:03.515Z,3.00
2023-03-03T22:34:05.651Z,3.10
2023-03-03T22:36:08.685Z,3.00
2023-03-03T22:38:10.376Z,3.00
2023-03-03T22:40:12.375Z,3.00
2023-03-03T22:42:14.135Z,3.00
2023-03-03T22:44:15.859Z,3.00
2023-03-03T22:46:17.789Z,3.00
2023-03-03T22:48:19.519Z,3.00
2023-03-03T22:50:24.424Z,3.00
2023-03-03T22:52:26.113Z,2.90
2023-03-03T22:54:30.423Z,2.90
2023-03-03T22:56:32.143Z,2.90
2023-03-03T22:58:33.790Z,2.90
2023-03-03T23:00:38.692Z,2.90
2023-03-03T23:02:40.623Z,2.90
2023-03-03T23:04:42.328Z,2.90
2023-03-03T23:06:44.969Z,2.90
2023-03-03T23:08:49.118Z,2.90
2023-03-03T23:10:50.928Z,2.90
2023-03-03T23:12:52.670Z,2.80
2023-03-03T23:14:56.787Z,3.00
2023-03-03T23:17:00.769Z,2.80
2023-03-03T23:19:05.348Z,2.80
2023-03-03T23:21:07.048Z,2.80
2023-03-03T23:23:08.778Z,2.70
2023-03-03T23:25:11.737Z,2.70
2023-03-03T23:27:13.530Z,2.70
2023-03-03T23:29:15.358Z,2.70
2023-03-03T23:31:17.134Z,2.70
2023-03-03T23:33:21.080Z,2.70
2023-03-03T23:35:22.918Z,2.70
2023-03-03T23:37:24.702Z,2.70
2023-03-03T23:39:26.398Z,2.70
2023-03-03T23:41:28.230Z,2.70
2023-03-03T23:43:29.966Z,2.60
2023-03-03T23:45:31.830Z,2.70
2023-03-03T23:47:33.711Z,2.70
2023-03-03T23:49:35.901Z,2.70
2023-03-03T23:51:37.735Z,2.70
2023-03-03T23:53:39.550Z,2.70
2023-03-03T23:55:41.425Z,2.70
2023-03-03T23:57:43.184Z,2.70
2023-03-03T23:59:44.907Z,2.70
